sensor_id;sensor_type;location;lat;lon;timestamp;P1;durP1;ratioP1;P2;durP2;ratioP2
50779;SDS011;36748;37.428;-121.972;2023-07-31T00:01:10;7.53;;;4.00;;
50779;SDS011;36748;37.428;-121.972;2023-07-31T00:03:36;12.07;;;3.95;;
50779;SDS011;36748;37.428;-121.972;2023-07-31T00:06:02;10.55;;;3.63;;
50779;SDS011;36748;37.428;-121.972;2023-07-31T00:08:28;9.32;;;4.13;;
50779;SDS011;36748;37.428;-121.972;2023-07-31T00:10:55;13.00;;;3.70;;
50779;SDS011;36748;37.428;-121.972;2023-07-31T00:13:21;26.25;;;3.97;;
50779;SDS011;36748;37.428;-121.972;2023-07-31T00:15:47;12.35;;;3.80;;
50779;SDS011;36748;37.428;-121.972;2023-07-31T00:18:15;14.48;;;3.80;;
50779;SDS011;36748;37.428;-121.972;2023-07-31T00:20:41;15.00;;;4.55;;
50779;SDS011;36748;37.428;-121.972;2023-07-31T00:23:07;11.43;;;3.97;;
50779;SDS011;36748;37.428;-121.972;2023-07-31T00:25:33;10.38;;;4.15;;
50779;SDS011;36748;37.428;-121.972;2023-07-31T00:27:59;8.73;;;3.88;;
50779;SDS011;36748;37.428;-121.972;2023-07-31T00:30:26;14.45;;;4.10;;
50779;SDS011;36748;37.428;-121.972;2023-07-31T00:32:52;11.07;;;4.05;;
50779;SDS011;36748;37.428;-121.972;2023-07-31T00:35:18;10.73;;;4.00;;
50779;SDS011;36748;37.428;-121.972;2023-07-31T00:37:44;7.85;;;3.75;;
50779;SDS011;36748;37.428;-121.972;2023-07-31T00:40:11;7.13;;;4.13;;
50779;SDS011;36748;37.428;-121.972;2023-07-31T00:42:37;8.07;;;3.53;;
50779;SDS011;36748;37.428;-121.972;2023-07-31T00:45:03;8.77;;;3.67;;
50779;SDS011;36748;37.428;-121.972;2023-07-31T00:47:30;9.45;;;4.25;;
50779;SDS011;36748;37.428;-121.972;2023-07-31T00:49:56;8.73;;;4.32;;
50779;SDS011;36748;37.428;-121.972;2023-07-31T00:52:22;6.82;;;3.40;;
50779;SDS011;36748;37.428;-121.972;2023-07-31T00:55:07;7.88;;;4.20;;
50779;SDS011;36748;37.428;-121.972;2023-07-31T00:57:34;11.07;;;3.65;;
50779;SDS011;36748;37.428;-121.972;2023-07-31T01:00:00;8.85;;;3.50;;
50779;SDS011;36748;37.428;-121.972;2023-07-31T01:02:26;12.00;;;3.92;;
50779;SDS011;36748;37.428;-121.972;2023-07-31T01:04:53;9.13;;;3.72;;
50779;SDS011;36748;37.428;-121.972;2023-07-31T01:07:21;8.43;;;3.50;;
50779;SDS011;36748;37.428;-121.972;2023-07-31T01:10:15;8.82;;;3.55;;
50779;SDS011;36748;37.428;-121.972;2023-07-31T01:12:44;9.10;;;4.05;;
50779;SDS011;36748;37.428;-121.972;2023-07-31T01:15:13;8.70;;;3.97;;
50779;SDS011;36748;37.428;-121.972;2023-07-31T01:17:41;7.55;;;3.80;;
50779;SDS011;36748;37.428;-121.972;2023-07-31T01:20:12;7.75;;;3.90;;
50779;SDS011;36748;37.428;-121.972;2023-07-31T01:28:04;10.70;;;4.05;;
50779;SDS011;36748;37.428;-121.972;2023-07-31T01:30:37;10.65;;;4.40;;
50779;SDS011;36748;37.428;-121.972;2023-07-31T01:33:21;9.23;;;4.22;;
50779;SDS011;36748;37.428;-121.972;2023-07-31T01:35:55;11.68;;;4.15;;
50779;SDS011;36748;37.428;-121.972;2023-07-31T01:38:21;10.55;;;4.03;;
50779;SDS011;36748;37.428;-121.972;2023-07-31T01:40:53;10.27;;;4.43;;
50779;SDS011;36748;37.428;-121.972;2023-07-31T01:43:20;10.80;;;4.35;;
50779;SDS011;36748;37.428;-121.972;2023-07-31T01:45:47;11.50;;;4.70;;
50779;SDS011;36748;37.428;-121.972;2023-07-31T01:48:22;7.80;;;4.18;;
50779;SDS011;36748;37.428;-121.972;2023-07-31T01:50:49;11.30;;;4.65;;
50779;SDS011;36748;37.428;-121.972;2023-07-31T01:53:15;9.75;;;4.82;;
50779;SDS011;36748;37.428;-121.972;2023-07-31T01:55:45;7.88;;;3.92;;
50779;SDS011;36748;37.428;-121.972;2023-07-31T01:58:12;8.10;;;4.20;;
50779;SDS011;36748;37.428;-121.972;2023-07-31T02:00:38;8.85;;;3.88;;
50779;SDS011;36748;37.428;-121.972;2023-07-31T02:03:04;8.10;;;4.22;;
50779;SDS011;36748;37.428;-121.972;2023-07-31T02:05:31;9.15;;;4.00;;
50779;SDS011;36748;37.428;-121.972;2023-07-31T02:07:59;8.48;;;4.22;;
50779;SDS011;36748;37.428;-121.972;2023-07-31T02:10:25;8.77;;;4.10;;
50779;SDS011;36748;37.428;-121.972;2023-07-31T02:12:54;9.23;;;4.25;;
50779;SDS011;36748;37.428;-121.972;2023-07-31T02:15:21;14.05;;;4.82;;
50779;SDS011;36748;37.428;-121.972;2023-07-31T02:17:47;14.05;;;4.07;;
50779;SDS011;36748;37.428;-121.972;2023-07-31T02:20:14;15.00;;;4.50;;
50779;SDS011;36748;37.428;-121.972;2023-07-31T02:22:40;16.55;;;4.93;;
50779;SDS011;36748;37.428;-121.972;2023-07-31T02:25:08;20.55;;;4.38;;
50779;SDS011;36748;37.428;-121.972;2023-07-31T02:27:34;15.40;;;4.68;;
50779;SDS011;36748;37.428;-121.972;2023-07-31T02:30:00;17.27;;;4.80;;
50779;SDS011;36748;37.428;-121.972;2023-07-31T02:32:27;13.82;;;4.68;;
50779;SDS011;36748;37.428;-121.972;2023-07-31T02:34:53;9.18;;;4.53;;
50779;SDS011;36748;37.428;-121.972;2023-07-31T02:37:19;18.30;;;4.95;;
50779;SDS011;36748;37.428;-121.972;2023-07-31T02:39:47;17.52;;;4.90;;
50779;SDS011;36748;37.428;-121.972;2023-07-31T02:42:14;15.27;;;4.88;;
50779;SDS011;36748;37.428;-121.972;2023-07-31T02:44:40;13.15;;;4.72;;
50779;SDS011;36748;37.428;-121.972;2023-07-31T02:47:06;13.82;;;5.38;;
50779;SDS011;36748;37.428;-121.972;2023-07-31T02:49:33;11.30;;;4.97;;
50779;SDS011;36748;37.428;-121.972;2023-07-31T02:51:59;11.38;;;4.93;;
50779;SDS011;36748;37.428;-121.972;2023-07-31T02:54:25;17.38;;;5.93;;
50779;SDS011;36748;37.428;-121.972;2023-07-31T02:56:51;12.88;;;5.38;;
50779;SDS011;36748;37.428;-121.972;2023-07-31T02:59:18;12.23;;;4.68;;
50779;SDS011;36748;37.428;-121.972;2023-07-31T03:01:44;13.63;;;5.28;;
50779;SDS011;36748;37.428;-121.972;2023-07-31T03:04:10;15.68;;;5.50;;
50779;SDS011;36748;37.428;-121.972;2023-07-31T03:06:37;12.15;;;5.65;;
50779;SDS011;36748;37.428;-121.972;2023-07-31T03:09:04;13.00;;;5.00;;
50779;SDS011;36748;37.428;-121.972;2023-07-31T03:11:31;15.70;;;5.65;;
50779;SDS011;36748;37.428;-121.972;2023-07-31T03:13:57;10.98;;;5.00;;
50779;SDS011;36748;37.428;-121.972;2023-07-31T03:16:29;11.07;;;5.45;;
50779;SDS011;36748;37.428;-121.972;2023-07-31T03:18:55;11.60;;;5.22;;
50779;SDS011;36748;37.428;-121.972;2023-07-31T03:21:22;12.18;;;5.20;;
50779;SDS011;36748;37.428;-121.972;2023-07-31T03:23:50;13.27;;;5.10;;
50779;SDS011;36748;37.428;-121.972;2023-07-31T03:26:16;12.70;;;5.72;;
50779;SDS011;36748;37.428;-121.972;2023-07-31T03:28:43;16.40;;;5.43;;
50779;SDS011;36748;37.428;-121.972;2023-07-31T03:31:09;16.52;;;5.82;;
50779;SDS011;36748;37.428;-121.972;2023-07-31T03:33:37;13.18;;;5.10;;
50779;SDS011;36748;37.428;-121.972;2023-07-31T03:36:04;14.57;;;5.95;;
50779;SDS011;36748;37.428;-121.972;2023-07-31T03:38:31;13.23;;;5.75;;
50779;SDS011;36748;37.428;-121.972;2023-07-31T03:40:57;14.73;;;5.72;;
50779;SDS011;36748;37.428;-121.972;2023-07-31T03:43:26;15.98;;;5.70;;
50779;SDS011;36748;37.428;-121.972;2023-07-31T03:45:52;14.25;;;5.60;;
50779;SDS011;36748;37.428;-121.972;2023-07-31T03:48:21;11.25;;;4.82;;
50779;SDS011;36748;37.428;-121.972;2023-07-31T03:50:47;16.00;;;6.18;;
50779;SDS011;36748;37.428;-121.972;2023-07-31T03:53:13;15.98;;;6.10;;
50779;SDS011;36748;37.428;-121.972;2023-07-31T03:55:40;16.73;;;6.28;;
50779;SDS011;36748;37.428;-121.972;2023-07-31T03:58:06;13.13;;;6.18;;
50779;SDS011;36748;37.428;-121.972;2023-07-31T04:00:32;12.30;;;5.53;;
50779;SDS011;36748;37.428;-121.972;2023-07-31T04:02:59;14.90;;;6.38;;
50779;SDS011;36748;37.428;-121.972;2023-07-31T04:05:26;13.05;;;5.50;;
50779;SDS011;36748;37.428;-121.972;2023-07-31T04:07:53;16.23;;;6.07;;
50779;SDS011;36748;37.428;-121.972;2023-07-31T04:10:19;14.73;;;6.20;;
50779;SDS011;36748;37.428;-121.972;2023-07-31T04:12:45;17.23;;;5.93;;
50779;SDS011;36748;37.428;-121.972;2023-07-31T04:15:11;17.20;;;6.18;;
50779;SDS011;36748;37.428;-121.972;2023-07-31T04:17:39;15.70;;;6.40;;
50779;SDS011;36748;37.428;-121.972;2023-07-31T04:20:05;14.93;;;5.30;;
50779;SDS011;36748;37.428;-121.972;2023-07-31T04:22:32;21.70;;;6.88;;
50779;SDS011;36748;37.428;-121.972;2023-07-31T04:24:58;15.68;;;5.93;;
50779;SDS011;36748;37.428;-121.972;2023-07-31T04:27:24;12.77;;;5.65;;
50779;SDS011;36748;37.428;-121.972;2023-07-31T04:29:51;15.23;;;5.03;;
50779;SDS011;36748;37.428;-121.972;2023-07-31T04:32:17;16.52;;;5.90;;
50779;SDS011;36748;37.428;-121.972;2023-07-31T04:34:44;14.02;;;5.38;;
50779;SDS011;36748;37.428;-121.972;2023-07-31T04:37:10;11.15;;;5.40;;
50779;SDS011;36748;37.428;-121.972;2023-07-31T04:39:37;13.50;;;5.28;;
50779;SDS011;36748;37.428;-121.972;2023-07-31T04:42:03;15.23;;;5.28;;
50779;SDS011;36748;37.428;-121.972;2023-07-31T04:44:29;16.42;;;5.85;;
50779;SDS011;36748;37.428;-121.972;2023-07-31T04:46:55;12.73;;;5.18;;
50779;SDS011;36748;37.428;-121.972;2023-07-31T04:49:22;16.13;;;5.68;;
50779;SDS011;36748;37.428;-121.972;2023-07-31T04:51:48;16.17;;;5.25;;
50779;SDS011;36748;37.428;-121.972;2023-07-31T04:54:14;11.80;;;5.43;;
50779;SDS011;36748;37.428;-121.972;2023-07-31T04:56:40;14.15;;;5.38;;
50779;SDS011;36748;37.428;-121.972;2023-07-31T04:59:06;14.30;;;5.35;;
50779;SDS011;36748;37.428;-121.972;2023-07-31T05:01:33;12.98;;;4.95;;
50779;SDS011;36748;37.428;-121.972;2023-07-31T05:03:59;12.27;;;4.88;;
50779;SDS011;36748;37.428;-121.972;2023-07-31T05:06:25;17.95;;;5.07;;
50779;SDS011;36748;37.428;-121.972;2023-07-31T05:08:51;12.73;;;5.57;;
50779;SDS011;36748;37.428;-121.972;2023-07-31T05:11:17;12.43;;;5.80;;
50779;SDS011;36748;37.428;-121.972;2023-07-31T05:13:43;14.38;;;5.75;;
50779;SDS011;36748;37.428;-121.972;2023-07-31T05:16:10;13.13;;;5.32;;
50779;SDS011;36748;37.428;-121.972;2023-07-31T05:18:36;10.55;;;4.55;;
50779;SDS011;36748;37.428;-121.972;2023-07-31T05:21:02;12.18;;;4.70;;
50779;SDS011;36748;37.428;-121.972;2023-07-31T05:23:28;16.75;;;5.25;;
50779;SDS011;36748;37.428;-121.972;2023-07-31T05:26:02;14.20;;;5.00;;
50779;SDS011;36748;37.428;-121.972;2023-07-31T05:28:31;9.20;;;4.25;;
50779;SDS011;36748;37.428;-121.972;2023-07-31T05:30:59;18.48;;;5.40;;
50779;SDS011;36748;37.428;-121.972;2023-07-31T05:33:26;14.57;;;5.18;;
50779;SDS011;36748;37.428;-121.972;2023-07-31T05:35:53;14.18;;;4.90;;
50779;SDS011;36748;37.428;-121.972;2023-07-31T05:38:19;10.38;;;4.68;;
50779;SDS011;36748;37.428;-121.972;2023-07-31T05:40:45;13.75;;;4.32;;
50779;SDS011;36748;37.428;-121.972;2023-07-31T05:43:12;13.43;;;4.63;;
50779;SDS011;36748;37.428;-121.972;2023-07-31T05:45:39;17.20;;;5.30;;
50779;SDS011;36748;37.428;-121.972;2023-07-31T05:48:05;14.43;;;5.10;;
50779;SDS011;36748;37.428;-121.972;2023-07-31T05:50:32;11.85;;;4.80;;
50779;SDS011;36748;37.428;-121.972;2023-07-31T05:52:58;14.52;;;5.00;;
50779;SDS011;36748;37.428;-121.972;2023-07-31T05:55:24;14.82;;;5.38;;
50779;SDS011;36748;37.428;-121.972;2023-07-31T05:57:53;21.10;;;5.65;;
50779;SDS011;36748;37.428;-121.972;2023-07-31T06:00:19;12.40;;;5.18;;
50779;SDS011;36748;37.428;-121.972;2023-07-31T06:02:49;13.77;;;5.10;;
50779;SDS011;36748;37.428;-121.972;2023-07-31T06:05:15;9.70;;;4.60;;
50779;SDS011;36748;37.428;-121.972;2023-07-31T06:07:41;13.00;;;4.78;;
50779;SDS011;36748;37.428;-121.972;2023-07-31T06:10:07;14.57;;;5.28;;
50779;SDS011;36748;37.428;-121.972;2023-07-31T06:12:34;12.43;;;4.75;;
50779;SDS011;36748;37.428;-121.972;2023-07-31T06:15:01;12.50;;;5.00;;
50779;SDS011;36748;37.428;-121.972;2023-07-31T06:17:29;14.55;;;4.85;;
50779;SDS011;36748;37.428;-121.972;2023-07-31T06:19:55;12.55;;;5.32;;
50779;SDS011;36748;37.428;-121.972;2023-07-31T06:22:22;16.73;;;5.72;;
50779;SDS011;36748;37.428;-121.972;2023-07-31T06:24:48;12.73;;;4.50;;
50779;SDS011;36748;37.428;-121.972;2023-07-31T06:27:14;9.75;;;4.10;;
50779;SDS011;36748;37.428;-121.972;2023-07-31T06:29:41;10.65;;;4.55;;
50779;SDS011;36748;37.428;-121.972;2023-07-31T06:32:08;11.32;;;4.90;;
50779;SDS011;36748;37.428;-121.972;2023-07-31T06:34:34;13.65;;;5.10;;
50779;SDS011;36748;37.428;-121.972;2023-07-31T06:37:00;8.80;;;4.05;;
50779;SDS011;36748;37.428;-121.972;2023-07-31T06:39:26;11.25;;;4.80;;
50779;SDS011;36748;37.428;-121.972;2023-07-31T06:41:52;12.38;;;4.78;;
50779;SDS011;36748;37.428;-121.972;2023-07-31T06:44:18;14.35;;;4.60;;
50779;SDS011;36748;37.428;-121.972;2023-07-31T06:46:45;12.63;;;4.60;;
50779;SDS011;36748;37.428;-121.972;2023-07-31T06:49:11;14.27;;;4.68;;
50779;SDS011;36748;37.428;-121.972;2023-07-31T06:51:37;13.25;;;4.88;;
50779;SDS011;36748;37.428;-121.972;2023-07-31T06:54:04;12.73;;;4.93;;
50779;SDS011;36748;37.428;-121.972;2023-07-31T06:56:30;16.35;;;5.22;;
50779;SDS011;36748;37.428;-121.972;2023-07-31T06:58:56;9.65;;;4.30;;
50779;SDS011;36748;37.428;-121.972;2023-07-31T07:01:22;10.88;;;4.53;;
50779;SDS011;36748;37.428;-121.972;2023-07-31T07:03:48;15.27;;;4.72;;
50779;SDS011;36748;37.428;-121.972;2023-07-31T07:06:16;18.15;;;4.68;;
50779;SDS011;36748;37.428;-121.972;2023-07-31T07:08:43;13.13;;;5.28;;
50779;SDS011;36748;37.428;-121.972;2023-07-31T07:11:09;14.98;;;5.28;;
50779;SDS011;36748;37.428;-121.972;2023-07-31T07:13:35;13.68;;;5.32;;
50779;SDS011;36748;37.428;-121.972;2023-07-31T07:16:01;14.77;;;5.15;;
50779;SDS011;36748;37.428;-121.972;2023-07-31T07:18:28;18.73;;;5.05;;
50779;SDS011;36748;37.428;-121.972;2023-07-31T07:20:54;15.00;;;5.22;;
50779;SDS011;36748;37.428;-121.972;2023-07-31T07:23:22;14.32;;;5.10;;
50779;SDS011;36748;37.428;-121.972;2023-07-31T07:25:48;15.10;;;4.90;;
50779;SDS011;36748;37.428;-121.972;2023-07-31T07:28:15;15.13;;;4.57;;
50779;SDS011;36748;37.428;-121.972;2023-07-31T07:30:41;16.75;;;4.97;;
50779;SDS011;36748;37.428;-121.972;2023-07-31T07:33:07;15.57;;;4.53;;
50779;SDS011;36748;37.428;-121.972;2023-07-31T07:35:33;11.13;;;4.65;;
50779;SDS011;36748;37.428;-121.972;2023-07-31T07:38:00;14.98;;;4.95;;
50779;SDS011;36748;37.428;-121.972;2023-07-31T07:40:27;14.05;;;5.15;;
50779;SDS011;36748;37.428;-121.972;2023-07-31T07:42:53;13.90;;;4.95;;
50779;SDS011;36748;37.428;-121.972;2023-07-31T07:45:19;15.73;;;4.47;;
50779;SDS011;36748;37.428;-121.972;2023-07-31T07:47:45;16.73;;;5.07;;
50779;SDS011;36748;37.428;-121.972;2023-07-31T07:50:11;17.35;;;5.13;;
50779;SDS011;36748;37.428;-121.972;2023-07-31T07:52:38;13.43;;;4.47;;
50779;SDS011;36748;37.428;-121.972;2023-07-31T07:55:04;15.65;;;5.10;;
50779;SDS011;36748;37.428;-121.972;2023-07-31T07:57:30;13.80;;;4.82;;
50779;SDS011;36748;37.428;-121.972;2023-07-31T07:59:56;13.85;;;5.10;;
50779;SDS011;36748;37.428;-121.972;2023-07-31T08:02:23;15.63;;;5.15;;
50779;SDS011;36748;37.428;-121.972;2023-07-31T08:04:49;15.23;;;4.97;;
50779;SDS011;36748;37.428;-121.972;2023-07-31T08:07:15;14.43;;;5.28;;
50779;SDS011;36748;37.428;-121.972;2023-07-31T08:09:41;13.70;;;4.50;;
50779;SDS011;36748;37.428;-121.972;2023-07-31T08:12:07;14.25;;;4.50;;
50779;SDS011;36748;37.428;-121.972;2023-07-31T08:14:34;13.55;;;5.20;;
50779;SDS011;36748;37.428;-121.972;2023-07-31T08:17:01;11.30;;;4.63;;
50779;SDS011;36748;37.428;-121.972;2023-07-31T08:19:28;13.90;;;4.72;;
50779;SDS011;36748;37.428;-121.972;2023-07-31T08:21:54;19.42;;;5.38;;
50779;SDS011;36748;37.428;-121.972;2023-07-31T08:24:20;16.38;;;5.38;;
50779;SDS011;36748;37.428;-121.972;2023-07-31T08:26:46;13.73;;;4.93;;
50779;SDS011;36748;37.428;-121.972;2023-07-31T08:29:13;14.30;;;5.18;;
50779;SDS011;36748;37.428;-121.972;2023-07-31T08:31:39;15.98;;;6.15;;
50779;SDS011;36748;37.428;-121.972;2023-07-31T08:34:05;17.83;;;5.72;;
50779;SDS011;36748;37.428;-121.972;2023-07-31T08:36:32;15.05;;;4.97;;
50779;SDS011;36748;37.428;-121.972;2023-07-31T08:38:58;13.55;;;4.97;;
50779;SDS011;36748;37.428;-121.972;2023-07-31T08:41:24;18.92;;;5.57;;
50779;SDS011;36748;37.428;-121.972;2023-07-31T08:43:51;17.30;;;4.82;;
50779;SDS011;36748;37.428;-121.972;2023-07-31T08:46:18;13.93;;;5.32;;
50779;SDS011;36748;37.428;-121.972;2023-07-31T08:48:44;16.30;;;4.65;;
50779;SDS011;36748;37.428;-121.972;2023-07-31T08:51:13;14.05;;;5.25;;
50779;SDS011;36748;37.428;-121.972;2023-07-31T08:53:40;16.63;;;4.90;;
50779;SDS011;36748;37.428;-121.972;2023-07-31T08:56:07;13.20;;;4.88;;
50779;SDS011;36748;37.428;-121.972;2023-07-31T08:58:33;12.05;;;4.38;;
50779;SDS011;36748;37.428;-121.972;2023-07-31T09:01:01;16.63;;;5.47;;
50779;SDS011;36748;37.428;-121.972;2023-07-31T09:03:30;13.70;;;4.57;;
50779;SDS011;36748;37.428;-121.972;2023-07-31T09:05:59;12.82;;;5.00;;
50779;SDS011;36748;37.428;-121.972;2023-07-31T09:08:26;13.50;;;4.30;;
50779;SDS011;36748;37.428;-121.972;2023-07-31T09:10:58;13.45;;;5.10;;
50779;SDS011;36748;37.428;-121.972;2023-07-31T09:13:27;15.13;;;4.97;;
50779;SDS011;36748;37.428;-121.972;2023-07-31T09:15:55;13.35;;;4.78;;
50779;SDS011;36748;37.428;-121.972;2023-07-31T09:18:21;13.73;;;4.90;;
50779;SDS011;36748;37.428;-121.972;2023-07-31T09:21:06;10.65;;;4.35;;
50779;SDS011;36748;37.428;-121.972;2023-07-31T09:23:42;16.10;;;5.38;;
50779;SDS011;36748;37.428;-121.972;2023-07-31T09:26:10;12.85;;;4.70;;
50779;SDS011;36748;37.428;-121.972;2023-07-31T09:28:36;13.50;;;4.97;;
50779;SDS011;36748;37.428;-121.972;2023-07-31T09:31:03;14.98;;;4.97;;
50779;SDS011;36748;37.428;-121.972;2023-07-31T09:33:29;12.30;;;4.47;;
50779;SDS011;36748;37.428;-121.972;2023-07-31T09:35:58;13.27;;;5.05;;
50779;SDS011;36748;37.428;-121.972;2023-07-31T09:38:26;12.93;;;4.75;;
50779;SDS011;36748;37.428;-121.972;2023-07-31T09:40:52;12.68;;;4.50;;
50779;SDS011;36748;37.428;-121.972;2023-07-31T09:43:19;14.55;;;4.85;;
50779;SDS011;36748;37.428;-121.972;2023-07-31T09:45:46;12.55;;;4.88;;
50779;SDS011;36748;37.428;-121.972;2023-07-31T09:48:13;11.95;;;4.43;;
50779;SDS011;36748;37.428;-121.972;2023-07-31T09:50:44;11.68;;;4.68;;
50779;SDS011;36748;37.428;-121.972;2023-07-31T09:53:11;9.80;;;4.43;;
50779;SDS011;36748;37.428;-121.972;2023-07-31T09:55:38;8.68;;;3.83;;
50779;SDS011;36748;37.428;-121.972;2023-07-31T09:58:06;13.77;;;4.85;;
50779;SDS011;36748;37.428;-121.972;2023-07-31T10:00:33;13.07;;;5.00;;
50779;SDS011;36748;37.428;-121.972;2023-07-31T10:03:00;13.85;;;4.50;;
50779;SDS011;36748;37.428;-121.972;2023-07-31T10:05:34;10.20;;;4.28;;
50779;SDS011;36748;37.428;-121.972;2023-07-31T10:08:09;12.38;;;4.20;;
50779;SDS011;36748;37.428;-121.972;2023-07-31T10:10:35;12.88;;;4.75;;
50779;SDS011;36748;37.428;-121.972;2023-07-31T10:13:02;9.80;;;4.47;;
50779;SDS011;36748;37.428;-121.972;2023-07-31T10:15:29;8.65;;;4.20;;
50779;SDS011;36748;37.428;-121.972;2023-07-31T10:17:56;10.57;;;4.30;;
50779;SDS011;36748;37.428;-121.972;2023-07-31T10:20:22;11.52;;;4.03;;
50779;SDS011;36748;37.428;-121.972;2023-07-31T10:22:50;11.55;;;4.32;;
50779;SDS011;36748;37.428;-121.972;2023-07-31T10:25:37;10.90;;;4.43;;
50779;SDS011;36748;37.428;-121.972;2023-07-31T10:28:04;15.90;;;4.68;;
50779;SDS011;36748;37.428;-121.972;2023-07-31T10:30:31;13.50;;;4.63;;
50779;SDS011;36748;37.428;-121.972;2023-07-31T10:32:58;12.90;;;5.03;;
50779;SDS011;36748;37.428;-121.972;2023-07-31T10:35:25;12.70;;;4.78;;
50779;SDS011;36748;37.428;-121.972;2023-07-31T10:37:51;15.70;;;5.45;;
50779;SDS011;36748;37.428;-121.972;2023-07-31T10:40:19;10.93;;;4.50;;
50779;SDS011;36748;37.428;-121.972;2023-07-31T10:42:53;11.20;;;4.57;;
50779;SDS011;36748;37.428;-121.972;2023-07-31T10:45:27;8.98;;;3.90;;
50779;SDS011;36748;37.428;-121.972;2023-07-31T10:48:13;11.07;;;4.68;;
50779;SDS011;36748;37.428;-121.972;2023-07-31T10:50:55;10.02;;;4.47;;
50779;SDS011;36748;37.428;-121.972;2023-07-31T10:53:22;11.85;;;4.53;;
50779;SDS011;36748;37.428;-121.972;2023-07-31T10:55:49;13.63;;;4.85;;
50779;SDS011;36748;37.428;-121.972;2023-07-31T10:58:19;14.82;;;4.95;;
50779;SDS011;36748;37.428;-121.972;2023-07-31T11:00:46;12.25;;;4.50;;
50779;SDS011;36748;37.428;-121.972;2023-07-31T11:03:16;9.60;;;4.07;;
50779;SDS011;36748;37.428;-121.972;2023-07-31T11:05:44;11.32;;;4.30;;
50779;SDS011;36748;37.428;-121.972;2023-07-31T11:08:19;9.25;;;4.00;;
50779;SDS011;36748;37.428;-121.972;2023-07-31T11:10:46;12.25;;;5.03;;
50779;SDS011;36748;37.428;-121.972;2023-07-31T11:13:13;13.50;;;4.97;;
50779;SDS011;36748;37.428;-121.972;2023-07-31T11:15:40;12.20;;;4.40;;
50779;SDS011;36748;37.428;-121.972;2023-07-31T11:18:06;11.63;;;4.63;;
50779;SDS011;36748;37.428;-121.972;2023-07-31T11:20:33;11.38;;;4.80;;
50779;SDS011;36748;37.428;-121.972;2023-07-31T11:23:07;14.05;;;4.85;;
50779;SDS011;36748;37.428;-121.972;2023-07-31T11:25:34;10.30;;;4.35;;
50779;SDS011;36748;37.428;-121.972;2023-07-31T11:30:40;10.05;;;4.03;;
50779;SDS011;36748;37.428;-121.972;2023-07-31T11:33:08;12.70;;;4.63;;
50779;SDS011;36748;37.428;-121.972;2023-07-31T11:35:44;14.75;;;5.10;;
50779;SDS011;36748;37.428;-121.972;2023-07-31T11:40:49;13.15;;;4.60;;
50779;SDS011;36748;37.428;-121.972;2023-07-31T11:43:16;13.13;;;4.97;;
50779;SDS011;36748;37.428;-121.972;2023-07-31T11:45:47;13.93;;;5.00;;
50779;SDS011;36748;37.428;-121.972;2023-07-31T11:48:24;13.15;;;4.60;;
50779;SDS011;36748;37.428;-121.972;2023-07-31T11:50:53;13.35;;;4.85;;
50779;SDS011;36748;37.428;-121.972;2023-07-31T11:53:36;10.13;;;4.55;;
50779;SDS011;36748;37.428;-121.972;2023-07-31T11:56:10;13.02;;;4.18;;
50779;SDS011;36748;37.428;-121.972;2023-07-31T11:58:39;15.77;;;4.65;;
50779;SDS011;36748;37.428;-121.972;2023-07-31T12:01:05;14.93;;;4.70;;
50779;SDS011;36748;37.428;-121.972;2023-07-31T12:03:34;14.05;;;4.50;;
50779;SDS011;36748;37.428;-121.972;2023-07-31T12:06:01;14.32;;;5.10;;
50779;SDS011;36748;37.428;-121.972;2023-07-31T12:08:27;14.82;;;4.55;;
50779;SDS011;36748;37.428;-121.972;2023-07-31T12:11:01;12.82;;;4.50;;
50779;SDS011;36748;37.428;-121.972;2023-07-31T12:13:29;13.43;;;4.72;;
50779;SDS011;36748;37.428;-121.972;2023-07-31T12:15:58;10.85;;;4.75;;
50779;SDS011;36748;37.428;-121.972;2023-07-31T12:18:27;12.68;;;4.80;;
50779;SDS011;36748;37.428;-121.972;2023-07-31T12:20:55;9.82;;;4.57;;
50779;SDS011;36748;37.428;-121.972;2023-07-31T12:23:23;11.48;;;4.13;;
50779;SDS011;36748;37.428;-121.972;2023-07-31T12:28:27;13.00;;;5.05;;
50779;SDS011;36748;37.428;-121.972;2023-07-31T12:30:56;13.35;;;4.90;;
50779;SDS011;36748;37.428;-121.972;2023-07-31T12:33:24;13.27;;;5.03;;
50779;SDS011;36748;37.428;-121.972;2023-07-31T12:36:00;12.20;;;4.82;;
50779;SDS011;36748;37.428;-121.972;2023-07-31T12:38:29;12.27;;;4.78;;
50779;SDS011;36748;37.428;-121.972;2023-07-31T12:40:55;18.30;;;5.20;;
50779;SDS011;36748;37.428;-121.972;2023-07-31T12:43:21;12.48;;;4.85;;
50779;SDS011;36748;37.428;-121.972;2023-07-31T12:45:48;8.02;;;3.88;;
50779;SDS011;36748;37.428;-121.972;2023-07-31T12:48:14;11.98;;;4.40;;
50779;SDS011;36748;37.428;-121.972;2023-07-31T12:50:41;13.48;;;5.00;;
50779;SDS011;36748;37.428;-121.972;2023-07-31T12:53:07;12.77;;;4.45;;
50779;SDS011;36748;37.428;-121.972;2023-07-31T12:55:33;10.45;;;4.72;;
50779;SDS011;36748;37.428;-121.972;2023-07-31T12:58:00;12.98;;;4.90;;
50779;SDS011;36748;37.428;-121.972;2023-07-31T13:00:26;15.02;;;4.75;;
50779;SDS011;36748;37.428;-121.972;2023-07-31T13:02:52;16.05;;;5.13;;
50779;SDS011;36748;37.428;-121.972;2023-07-31T13:05:19;13.90;;;4.95;;
50779;SDS011;36748;37.428;-121.972;2023-07-31T13:07:45;11.43;;;4.85;;
50779;SDS011;36748;37.428;-121.972;2023-07-31T13:10:14;13.38;;;5.15;;
50779;SDS011;36748;37.428;-121.972;2023-07-31T13:12:41;22.42;;;5.10;;
50779;SDS011;36748;37.428;-121.972;2023-07-31T13:15:07;13.80;;;5.05;;
50779;SDS011;36748;37.428;-121.972;2023-07-31T13:17:34;15.88;;;4.93;;
50779;SDS011;36748;37.428;-121.972;2023-07-31T13:20:01;21.92;;;5.40;;
50779;SDS011;36748;37.428;-121.972;2023-07-31T13:22:28;20.65;;;5.68;;
50779;SDS011;36748;37.428;-121.972;2023-07-31T13:24:55;25.55;;;5.88;;
50779;SDS011;36748;37.428;-121.972;2023-07-31T13:27:21;28.00;;;6.30;;
50779;SDS011;36748;37.428;-121.972;2023-07-31T13:29:48;30.33;;;6.03;;
50779;SDS011;36748;37.428;-121.972;2023-07-31T13:32:15;23.00;;;6.13;;
50779;SDS011;36748;37.428;-121.972;2023-07-31T13:34:42;24.63;;;5.38;;
50779;SDS011;36748;37.428;-121.972;2023-07-31T13:37:09;22.25;;;5.97;;
50779;SDS011;36748;37.428;-121.972;2023-07-31T13:39:35;17.15;;;5.25;;
50779;SDS011;36748;37.428;-121.972;2023-07-31T13:42:04;22.52;;;5.88;;
50779;SDS011;36748;37.428;-121.972;2023-07-31T13:44:36;16.50;;;5.60;;
50779;SDS011;36748;37.428;-121.972;2023-07-31T13:47:06;24.50;;;5.95;;
50779;SDS011;36748;37.428;-121.972;2023-07-31T13:49:33;24.42;;;5.90;;
50779;SDS011;36748;37.428;-121.972;2023-07-31T13:52:00;20.25;;;5.90;;
50779;SDS011;36748;37.428;-121.972;2023-07-31T13:54:26;16.52;;;5.43;;
50779;SDS011;36748;37.428;-121.972;2023-07-31T13:56:52;16.00;;;5.18;;
50779;SDS011;36748;37.428;-121.972;2023-07-31T13:59:19;17.70;;;5.65;;
50779;SDS011;36748;37.428;-121.972;2023-07-31T14:01:46;14.32;;;5.00;;
50779;SDS011;36748;37.428;-121.972;2023-07-31T14:04:13;16.75;;;5.95;;
50779;SDS011;36748;37.428;-121.972;2023-07-31T14:06:39;16.63;;;5.32;;
50779;SDS011;36748;37.428;-121.972;2023-07-31T14:09:05;17.70;;;5.65;;
50779;SDS011;36748;37.428;-121.972;2023-07-31T14:11:32;14.85;;;5.30;;
50779;SDS011;36748;37.428;-121.972;2023-07-31T14:13:58;21.13;;;5.20;;